sensor_id;sensor_type;location;lat;lon;timestamp;temperature;humidity
19389;DHT22;9830;41.876;23.474;2022-09-21T00:03:31;6.30;99.90
19389;DHT22;9830;41.876;23.474;2022-09-21T00:06:12;6.30;99.90
19389;DHT22;9830;41.876;23.474;2022-09-21T00:08:38;6.40;99.90
19389;DHT22;9830;41.876;23.474;2022-09-21T00:11:05;6.40;99.90
19389;DHT22;9830;41.876;23.474;2022-09-21T00:13:32;6.40;99.90
19389;DHT22;9830;41.876;23.474;2022-09-21T00:15:59;6.40;99.90
19389;DHT22;9830;41.876;23.474;2022-09-21T00:18:25;6.50;99.90
19389;DHT22;9830;41.876;23.474;2022-09-21T00:20:51;6.50;99.90
19389;DHT22;9830;41.876;23.474;2022-09-21T00:23:18;6.50;99.90
19389;DHT22;9830;41.876;23.474;2022-09-21T00:25:44;6.50;99.90
19389;DHT22;9830;41.876;23.474;2022-09-21T00:28:09;6.50;99.90
19389;DHT22;9830;41.876;23.474;2022-09-21T00:30:36;6.50;99.90
19389;DHT22;9830;41.876;23.474;2022-09-21T00:33:02;6.40;99.90
19389;DHT22;9830;41.876;23.474;2022-09-21T00:35:27;6.30;99.90
19389;DHT22;9830;41.876;23.474;2022-09-21T00:37:53;6.30;99.90
19389;DHT22;9830;41.876;23.474;2022-09-21T00:40:19;6.30;99.90
19389;DHT22;9830;41.876;23.474;2022-09-21T00:42:44;6.30;99.90
19389;DHT22;9830;41.876;23.474;2022-09-21T00:45:11;6.40;99.90
19389;DHT22;9830;41.876;23.474;2022-09-21T00:47:48;6.40;99.90
19389;DHT22;9830;41.876;23.474;2022-09-21T00:50:18;6.40;99.90
19389;DHT22;9830;41.876;23.474;2022-09-21T00:52:48;6.40;99.90
19389;DHT22;9830;41.876;23.474;2022-09-21T00:55:24;6.40;99.90
19389;DHT22;9830;41.876;23.474;2022-09-21T00:57:54;6.30;99.90
19389;DHT22;9830;41.876;23.474;2022-09-21T01:00:22;6.40;99.90
19389;DHT22;9830;41.876;23.474;2022-09-21T01:02:48;6.30;99.90
19389;DHT22;9830;41.876;23.474;2022-09-21T01:05:14;6.30;99.90
19389;DHT22;9830;41.876;23.474;2022-09-21T01:07:44;6.20;99.90
19389;DHT22;9830;41.876;23.474;2022-09-21T01:10:13;6.20;99.90
19389;DHT22;9830;41.876;23.474;2022-09-21T01:16:03;6.10;99.90
19389;DHT22;9830;41.876;23.474;2022-09-21T01:26:25;5.90;99.90
19389;DHT22;9830;41.876;23.474;2022-09-21T01:28:59;5.70;99.90
19389;DHT22;9830;41.876;23.474;2022-09-21T01:31:35;5.60;99.90
19389;DHT22;9830;41.876;23.474;2022-09-21T01:34:12;5.60;99.90
19389;DHT22;9830;41.876;23.474;2022-09-21T01:36:41;5.60;99.90
19389;DHT22;9830;41.876;23.474;2022-09-21T01:39:11;5.80;99.90
19389;DHT22;9830;41.876;23.474;2022-09-21T01:41:39;5.80;99.90
19389;DHT22;9830;41.876;23.474;2022-09-21T01:44:09;5.90;99.90
19389;DHT22;9830;41.876;23.474;2022-09-21T01:46:37;5.80;99.90
19389;DHT22;9830;41.876;23.474;2022-09-21T01:49:19;5.80;99.90
19389;DHT22;9830;41.876;23.474;2022-09-21T01:51:56;5.90;99.90
19389;DHT22;9830;41.876;23.474;2022-09-21T01:54:47;6.00;99.90
19389;DHT22;9830;41.876;23.474;2022-09-21T01:57:31;5.80;99.90
19389;DHT22;9830;41.876;23.474;2022-09-21T02:00:00;5.80;99.90
19389;DHT22;9830;41.876;23.474;2022-09-21T02:05:01;5.80;99.90
19389;DHT22;9830;41.876;23.474;2022-09-21T02:07:28;5.70;99.90
19389;DHT22;9830;41.876;23.474;2022-09-21T02:09:54;5.70;99.90
19389;DHT22;9830;41.876;23.474;2022-09-21T02:12:21;5.70;99.90
19389;DHT22;9830;41.876;23.474;2022-09-21T02:14:49;5.70;99.90
19389;DHT22;9830;41.876;23.474;2022-09-21T02:20:08;5.60;99.90
19389;DHT22;9830;41.876;23.474;2022-09-21T02:23:13;5.70;99.90
19389;DHT22;9830;41.876;23.474;2022-09-21T02:25:47;5.60;99.90
19389;DHT22;9830;41.876;23.474;2022-09-21T02:31:14;5.70;99.90
19389;DHT22;9830;41.876;23.474;2022-09-21T02:33:57;5.60;99.90
19389;DHT22;9830;41.876;23.474;2022-09-21T02:36:32;5.60;99.90
19389;DHT22;9830;41.876;23.474;2022-09-21T02:39:11;5.50;99.90
19389;DHT22;9830;41.876;23.474;2022-09-21T02:41:54;5.40;99.90
19389;DHT22;9830;41.876;23.474;2022-09-21T02:44:31;5.40;99.90
19389;DHT22;9830;41.876;23.474;2022-09-21T02:47:03;5.40;99.90
19389;DHT22;9830;41.876;23.474;2022-09-21T02:49:38;5.40;99.90
19389;DHT22;9830;41.876;23.474;2022-09-21T02:52:11;5.40;99.90
19389;DHT22;9830;41.876;23.474;2022-09-21T02:54:39;5.40;99.90
19389;DHT22;9830;41.876;23.474;2022-09-21T02:57:07;5.40;99.90
19389;DHT22;9830;41.876;23.474;2022-09-21T02:59:34;5.40;99.90
19389;DHT22;9830;41.876;23.474;2022-09-21T03:02:00;5.40;99.90
19389;DHT22;9830;41.876;23.474;2022-09-21T03:04:26;5.40;99.90
19389;DHT22;9830;41.876;23.474;2022-09-21T03:06:52;5.40;99.90
19389;DHT22;9830;41.876;23.474;2022-09-21T03:09:18;5.40;99.90
19389;DHT22;9830;41.876;23.474;2022-09-21T03:11:49;5.50;99.90
19389;DHT22;9830;41.876;23.474;2022-09-21T03:14:14;5.60;99.90
19389;DHT22;9830;41.876;23.474;2022-09-21T03:16:41;5.60;99.90
19389;DHT22;9830;41.876;23.474;2022-09-21T03:19:08;5.70;99.90
19389;DHT22;9830;41.876;23.474;2022-09-21T03:21:34;5.80;99.90
19389;DHT22;9830;41.876;23.474;2022-09-21T03:24:00;5.80;99.90
19389;DHT22;9830;41.876;23.474;2022-09-21T03:26:25;5.70;99.90
19389;DHT22;9830;41.876;23.474;2022-09-21T03:28:51;5.60;99.90
19389;DHT22;9830;41.876;23.474;2022-09-21T03:31:19;5.70;99.90
19389;DHT22;9830;41.876;23.474;2022-09-21T03:33:45;5.70;99.90
19389;DHT22;9830;41.876;23.474;2022-09-21T03:36:11;5.80;99.90
19389;DHT22;9830;41.876;23.474;2022-09-21T03:38:37;5.70;99.90
19389;DHT22;9830;41.876;23.474;2022-09-21T03:41:03;5.70;99.90
19389;DHT22;9830;41.876;23.474;2022-09-21T03:43:29;5.70;99.90
19389;DHT22;9830;41.876;23.474;2022-09-21T03:45:55;5.80;99.90
19389;DHT22;9830;41.876;23.474;2022-09-21T03:48:21;5.80;99.90
19389;DHT22;9830;41.876;23.474;2022-09-21T03:50:47;5.80;99.90
19389;DHT22;9830;41.876;23.474;2022-09-21T03:53:13;5.80;99.90
19389;DHT22;9830;41.876;23.474;2022-09-21T03:55:39;5.90;99.90
19389;DHT22;9830;41.876;23.474;2022-09-21T03:58:05;5.80;99.90
19389;DHT22;9830;41.876;23.474;2022-09-21T04:00:32;5.90;99.90
19389;DHT22;9830;41.876;23.474;2022-09-21T04:02:58;5.90;99.90
19389;DHT22;9830;41.876;23.474;2022-09-21T04:05:24;6.00;99.90
19389;DHT22;9830;41.876;23.474;2022-09-21T04:07:50;5.90;99.90
19389;DHT22;9830;41.876;23.474;2022-09-21T04:10:18;5.80;99.90
19389;DHT22;9830;41.876;23.474;2022-09-21T04:12:45;5.90;99.90
19389;DHT22;9830;41.876;23.474;2022-09-21T04:15:16;5.80;99.90
19389;DHT22;9830;41.876;23.474;2022-09-21T04:17:44;5.80;99.90
19389;DHT22;9830;41.876;23.474;2022-09-21T04:20:11;5.90;99.90
19389;DHT22;9830;41.876;23.474;2022-09-21T04:22:36;5.90;99.90
19389;DHT22;9830;41.876;23.474;2022-09-21T04:25:03;5.80;99.90
19389;DHT22;9830;41.876;23.474;2022-09-21T04:27:31;5.90;99.90
19389;DHT22;9830;41.876;23.474;2022-09-21T04:29:57;6.10;99.90
19389;DHT22;9830;41.876;23.474;2022-09-21T04:32:22;6.00;99.90
19389;DHT22;9830;41.876;23.474;2022-09-21T04:34:48;5.90;99.90
19389;DHT22;9830;41.876;23.474;2022-09-21T04:37:14;6.00;99.90
19389;DHT22;9830;41.876;23.474;2022-09-21T04:39:40;5.90;99.90
19389;DHT22;9830;41.876;23.474;2022-09-21T04:42:06;5.90;99.90
19389;DHT22;9830;41.876;23.474;2022-09-21T04:44:31;6.20;99.90
19389;DHT22;9830;41.876;23.474;2022-09-21T04:46:57;6.20;99.90
19389;DHT22;9830;41.876;23.474;2022-09-21T04:49:23;6.10;99.90
19389;DHT22;9830;41.876;23.474;2022-09-21T04:51:49;6.10;99.90
19389;DHT22;9830;41.876;23.474;2022-09-21T04:54:14;6.30;99.90
19389;DHT22;9830;41.876;23.474;2022-09-21T04:56:40;6.50;99.90
19389;DHT22;9830;41.876;23.474;2022-09-21T04:59:06;6.50;99.90
19389;DHT22;9830;41.876;23.474;2022-09-21T05:01:31;6.50;99.90
19389;DHT22;9830;41.876;23.474;2022-09-21T05:03:57;6.40;99.90
19389;DHT22;9830;41.876;23.474;2022-09-21T05:06:29;6.40;99.90
19389;DHT22;9830;41.876;23.474;2022-09-21T05:08:56;6.80;99.90
19389;DHT22;9830;41.876;23.474;2022-09-21T05:11:40;7.30;99.90
19389;DHT22;9830;41.876;23.474;2022-09-21T05:14:07;7.60;99.90
19389;DHT22;9830;41.876;23.474;2022-09-21T05:16:33;7.70;99.90
19389;DHT22;9830;41.876;23.474;2022-09-21T05:18:59;8.30;99.90
19389;DHT22;9830;41.876;23.474;2022-09-21T05:21:24;8.50;99.90
19389;DHT22;9830;41.876;23.474;2022-09-21T05:23:50;8.80;99.90
19389;DHT22;9830;41.876;23.474;2022-09-21T05:26:16;8.60;99.90
19389;DHT22;9830;41.876;23.474;2022-09-21T05:28:42;8.40;99.90
19389;DHT22;9830;41.876;23.474;2022-09-21T05:34:40;8.50;99.90
19389;DHT22;9830;41.876;23.474;2022-09-21T05:39:30;8.50;99.90
19389;DHT22;9830;41.876;23.474;2022-09-21T05:41:56;8.60;99.90
19389;DHT22;9830;41.876;23.474;2022-09-21T05:44:22;9.80;99.90
19389;DHT22;9830;41.876;23.474;2022-09-21T05:47:33;11.00;98.20
19389;DHT22;9830;41.876;23.474;2022-09-21T05:58:25;11.50;93.70
19389;DHT22;9830;41.876;23.474;2022-09-21T06:03:34;10.80;95.90
19389;DHT22;9830;41.876;23.474;2022-09-21T06:06:00;10.70;97.00
19389;DHT22;9830;41.876;23.474;2022-09-21T06:08:26;10.60;96.60
19389;DHT22;9830;41.876;23.474;2022-09-21T06:10:52;10.70;96.60
19389;DHT22;9830;41.876;23.474;2022-09-21T06:13:19;10.80;95.80
19389;DHT22;9830;41.876;23.474;2022-09-21T06:15:45;11.00;96.50
19389;DHT22;9830;41.876;23.474;2022-09-21T06:18:11;10.90;96.10
19389;DHT22;9830;41.876;23.474;2022-09-21T06:20:37;11.00;95.90
19389;DHT22;9830;41.876;23.474;2022-09-21T06:23:04;11.00;95.50
19389;DHT22;9830;41.876;23.474;2022-09-21T06:25:30;11.50;94.20
19389;DHT22;9830;41.876;23.474;2022-09-21T06:28:01;11.90;92.90
19389;DHT22;9830;41.876;23.474;2022-09-21T06:30:27;11.80;93.20
19389;DHT22;9830;41.876;23.474;2022-09-21T06:32:52;12.10;91.40
19389;DHT22;9830;41.876;23.474;2022-09-21T06:35:18;12.20;91.50
19389;DHT22;9830;41.876;23.474;2022-09-21T06:37:44;12.20;91.60
19389;DHT22;9830;41.876;23.474;2022-09-21T06:40:09;12.20;91.30
19389;DHT22;9830;41.876;23.474;2022-09-21T06:42:35;11.80;92.40
19389;DHT22;9830;41.876;23.474;2022-09-21T06:45:01;12.00;91.80
19389;DHT22;9830;41.876;23.474;2022-09-21T06:47:27;12.00;92.10
19389;DHT22;9830;41.876;23.474;2022-09-21T06:49:54;11.80;92.60
19389;DHT22;9830;41.876;23.474;2022-09-21T06:52:20;11.80;93.40
19389;DHT22;9830;41.876;23.474;2022-09-21T06:54:46;12.40;91.80
19389;DHT22;9830;41.876;23.474;2022-09-21T06:57:11;12.80;90.60
19389;DHT22;9830;41.876;23.474;2022-09-21T06:59:37;12.50;91.30
19389;DHT22;9830;41.876;23.474;2022-09-21T07:02:03;13.00;91.10
19389;DHT22;9830;41.876;23.474;2022-09-21T07:04:28;13.90;87.90
19389;DHT22;9830;41.876;23.474;2022-09-21T07:06:54;13.80;86.30
19389;DHT22;9830;41.876;23.474;2022-09-21T07:09:20;14.10;84.30
19389;DHT22;9830;41.876;23.474;2022-09-21T07:11:45;14.10;84.70
19389;DHT22;9830;41.876;23.474;2022-09-21T07:14:11;14.60;85.40
19389;DHT22;9830;41.876;23.474;2022-09-21T07:16:39;15.60;78.40
19389;DHT22;9830;41.876;23.474;2022-09-21T07:19:05;15.80;76.10
19389;DHT22;9830;41.876;23.474;2022-09-21T07:21:31;15.90;72.60
19389;DHT22;9830;41.876;23.474;2022-09-21T07:24:00;16.00;73.30
19389;DHT22;9830;41.876;23.474;2022-09-21T07:26:26;15.80;72.40
19389;DHT22;9830;41.876;23.474;2022-09-21T07:28:52;16.40;70.50
19389;DHT22;9830;41.876;23.474;2022-09-21T07:31:17;16.80;66.90
19389;DHT22;9830;41.876;23.474;2022-09-21T07:33:44;16.70;65.70
19389;DHT22;9830;41.876;23.474;2022-09-21T07:36:13;16.60;65.70
19389;DHT22;9830;41.876;23.474;2022-09-21T07:38:41;16.40;68.00
19389;DHT22;9830;41.876;23.474;2022-09-21T07:41:08;15.60;67.50
19389;DHT22;9830;41.876;23.474;2022-09-21T07:43:34;15.80;66.20
19389;DHT22;9830;41.876;23.474;2022-09-21T07:46:01;15.80;67.10
19389;DHT22;9830;41.876;23.474;2022-09-21T07:48:27;15.70;67.50
19389;DHT22;9830;41.876;23.474;2022-09-21T07:50:53;16.50;64.50
19389;DHT22;9830;41.876;23.474;2022-09-21T07:53:21;16.90;59.70
19389;DHT22;9830;41.876;23.474;2022-09-21T07:55:47;17.40;58.00
19389;DHT22;9830;41.876;23.474;2022-09-21T07:58:13;18.20;55.10
19389;DHT22;9830;41.876;23.474;2022-09-21T08:00:57;17.70;55.40
19389;DHT22;9830;41.876;23.474;2022-09-21T08:03:22;18.40;55.40
19389;DHT22;9830;41.876;23.474;2022-09-21T08:05:48;19.50;49.90
19389;DHT22;9830;41.876;23.474;2022-09-21T08:08:14;19.30;48.70
19389;DHT22;9830;41.876;23.474;2022-09-21T08:10:41;19.20;50.20
19389;DHT22;9830;41.876;23.474;2022-09-21T08:13:07;19.60;46.70
19389;DHT22;9830;41.876;23.474;2022-09-21T08:15:32;19.90;45.80
19389;DHT22;9830;41.876;23.474;2022-09-21T08:17:58;19.80;46.00
19389;DHT22;9830;41.876;23.474;2022-09-21T08:20:25;19.50;47.10
19389;DHT22;9830;41.876;23.474;2022-09-21T08:22:51;20.30;45.80
19389;DHT22;9830;41.876;23.474;2022-09-21T08:25:18;20.70;44.70
19389;DHT22;9830;41.876;23.474;2022-09-21T08:27:44;21.80;44.80
19389;DHT22;9830;41.876;23.474;2022-09-21T08:30:09;22.40;39.50
19389;DHT22;9830;41.876;23.474;2022-09-21T08:32:38;22.00;40.40
19389;DHT22;9830;41.876;23.474;2022-09-21T08:35:04;21.70;41.20
19389;DHT22;9830;41.876;23.474;2022-09-21T08:37:30;20.80;41.40
19389;DHT22;9830;41.876;23.474;2022-09-21T08:39:56;20.70;41.60
19389;DHT22;9830;41.876;23.474;2022-09-21T08:45:03;21.30;41.10
19389;DHT22;9830;41.876;23.474;2022-09-21T08:50:29;21.00;42.30
19389;DHT22;9830;41.876;23.474;2022-09-21T08:53:01;21.20;43.50
19389;DHT22;9830;41.876;23.474;2022-09-21T08:55:27;21.60;43.00
19389;DHT22;9830;41.876;23.474;2022-09-21T08:57:53;20.70;44.20
19389;DHT22;9830;41.876;23.474;2022-09-21T09:00:19;21.00;44.30
19389;DHT22;9830;41.876;23.474;2022-09-21T09:19:25;22.70;41.90
19389;DHT22;9830;41.876;23.474;2022-09-21T09:21:55;23.50;40.60
19389;DHT22;9830;41.876;23.474;2022-09-21T09:27:02;24.10;38.40
19389;DHT22;9830;41.876;23.474;2022-09-21T09:29:55;23.80;39.20
19389;DHT22;9830;41.876;23.474;2022-09-21T09:32:28;23.80;40.10
19389;DHT22;9830;41.876;23.474;2022-09-21T09:37:44;24.30;38.90
19389;DHT22;9830;41.876;23.474;2022-09-21T09:40:13;23.80;39.10
19389;DHT22;9830;41.876;23.474;2022-09-21T09:43:46;23.10;39.40
19389;DHT22;9830;41.876;23.474;2022-09-21T09:51:24;19.50;44.90
19389;DHT22;9830;41.876;23.474;2022-09-21T09:53:52;19.50;46.10
19389;DHT22;9830;41.876;23.474;2022-09-21T09:56:22;19.70;45.70
19389;DHT22;9830;41.876;23.474;2022-09-21T10:01:58;19.90;45.90
19389;DHT22;9830;41.876;23.474;2022-09-21T10:04:24;19.70;45.60
19389;DHT22;9830;41.876;23.474;2022-09-21T10:06:50;19.50;45.10
19389;DHT22;9830;41.876;23.474;2022-09-21T10:09:29;19.20;47.20
19389;DHT22;9830;41.876;23.474;2022-09-21T10:12:22;19.20;46.20
19389;DHT22;9830;41.876;23.474;2022-09-21T10:14:51;19.30;45.50
19389;DHT22;9830;41.876;23.474;2022-09-21T10:17:17;19.80;44.60
19389;DHT22;9830;41.876;23.474;2022-09-21T10:19:43;19.30;44.10
19389;DHT22;9830;41.876;23.474;2022-09-21T10:22:19;19.40;45.80
19389;DHT22;9830;41.876;23.474;2022-09-21T10:24:48;19.70;44.60
19389;DHT22;9830;41.876;23.474;2022-09-21T10:27:33;19.60;44.80
19389;DHT22;9830;41.876;23.474;2022-09-21T10:30:00;19.00;45.20
19389;DHT22;9830;41.876;23.474;2022-09-21T10:32:29;18.40;47.00
19389;DHT22;9830;41.876;23.474;2022-09-21T10:37:35;18.00;46.80
19389;DHT22;9830;41.876;23.474;2022-09-21T10:42:52;18.60;45.30
19389;DHT22;9830;41.876;23.474;2022-09-21T10:45:21;19.00;44.80
19389;DHT22;9830;41.876;23.474;2022-09-21T10:47:55;19.80;44.50
19389;DHT22;9830;41.876;23.474;2022-09-21T10:55:42;19.10;44.70
19389;DHT22;9830;41.876;23.474;2022-09-21T10:58:09;18.60;44.90
19389;DHT22;9830;41.876;23.474;2022-09-21T11:00:44;18.70;44.80
19389;DHT22;9830;41.876;23.474;2022-09-21T11:05:56;17.90;47.50
19389;DHT22;9830;41.876;23.474;2022-09-21T11:08:38;17.90;46.70
19389;DHT22;9830;41.876;23.474;2022-09-21T11:24:27;19.50;43.90
19389;DHT22;9830;41.876;23.474;2022-09-21T11:38:04;17.90;44.70
19389;DHT22;9830;41.876;23.474;2022-09-21T12:05:32;16.30;51.60
19389;DHT22;9830;41.876;23.474;2022-09-21T12:16:44;15.90;52.10
19389;DHT22;9830;41.876;23.474;2022-09-21T12:22:30;15.70;53.60
19389;DHT22;9830;41.876;23.474;2022-09-21T12:27:39;15.80;53.40
19389;DHT22;9830;41.876;23.474;2022-09-21T12:30:17;16.10;52.50
19389;DHT22;9830;41.876;23.474;2022-09-21T12:35:17;16.80;50.90
19389;DHT22;9830;41.876;23.474;2022-09-21T12:37:56;17.10;50.50
19389;DHT22;9830;41.876;23.474;2022-09-21T12:43:31;17.30;49.40
19389;DHT22;9830;41.876;23.474;2022-09-21T12:48:35;17.40;47.60
19389;DHT22;9830;41.876;23.474;2022-09-21T12:51:35;17.40;44.40
19389;DHT22;9830;41.876;23.474;2022-09-21T12:54:14;17.30;46.80
19389;DHT22;9830;41.876;23.474;2022-09-21T13:10:38;17.50;44.80
19389;DHT22;9830;41.876;23.474;2022-09-21T13:13:14;16.80;45.80
19389;DHT22;9830;41.876;23.474;2022-09-21T13:15:45;16.30;47.60
19389;DHT22;9830;41.876;23.474;2022-09-21T13:18:28;16.50;48.90
19389;DHT22;9830;41.876;23.474;2022-09-21T13:20:57;16.50;45.70
19389;DHT22;9830;41.876;23.474;2022-09-21T13:23:32;16.60;45.90
19389;DHT22;9830;41.876;23.474;2022-09-21T13:26:06;16.50;50.40
19389;DHT22;9830;41.876;23.474;2022-09-21T13:33:39;16.90;47.80
19389;DHT22;9830;41.876;23.474;2022-09-21T13:36:43;16.80;45.80
19389;DHT22;9830;41.876;23.474;2022-09-21T13:39:17;16.20;46.50
19389;DHT22;9830;41.876;23.474;2022-09-21T13:41:44;15.90;47.80
19389;DHT22;9830;41.876;23.474;2022-09-21T13:44:40;15.70;49.00
19389;DHT22;9830;41.876;23.474;2022-09-21T13:47:08;15.40;49.30
19389;DHT22;9830;41.876;23.474;2022-09-21T13:49:45;15.20;49.20
19389;DHT22;9830;41.876;23.474;2022-09-21T13:57:43;14.70;49.20
19389;DHT22;9830;41.876;23.474;2022-09-21T14:08:00;15.20;50.50
19389;DHT22;9830;41.876;23.474;2022-09-21T14:10:26;15.40;47.90
19389;DHT22;9830;41.876;23.474;2022-09-21T14:12:53;15.20;47.50
19389;DHT22;9830;41.876;23.474;2022-09-21T14:21:07;15.20;47.30
19389;DHT22;9830;41.876;23.474;2022-09-21T14:23:37;15.30;47.80
19389;DHT22;9830;41.876;23.474;2022-09-21T14:26:33;15.40;48.40
19389;DHT22;9830;41.876;23.474;2022-09-21T14:32:20;15.00;49.40
19389;DHT22;9830;41.876;23.474;2022-09-21T14:34:50;14.90;50.50
19389;DHT22;9830;41.876;23.474;2022-09-21T14:37:38;15.00;49.90
19389;DHT22;9830;41.876;23.474;2022-09-21T14:42:45;15.40;50.70
19389;DHT22;9830;41.876;23.474;2022-09-21T14:45:17;15.40;48.80
19389;DHT22;9830;41.876;23.474;2022-09-21T14:48:20;15.50;49.40
19389;DHT22;9830;41.876;23.474;2022-09-21T15:01:58;15.20;53.00
19389;DHT22;9830;41.876;23.474;2022-09-21T15:07:48;14.70;54.50
19389;DHT22;9830;41.876;23.474;2022-09-21T15:19:23;13.80;58.60
19389;DHT22;9830;41.876;23.474;2022-09-21T15:24:18;13.20;66.10
19389;DHT22;9830;41.876;23.474;2022-09-21T15:26:45;12.90;67.50
19389;DHT22;9830;41.876;23.474;2022-09-21T15:29:26;12.80;68.90
19389;DHT22;9830;41.876;23.474;2022-09-21T15:31:53;12.70;70.00
19389;DHT22;9830;41.876;23.474;2022-09-21T15:34:20;12.60;70.90
19389;DHT22;9830;41.876;23.474;2022-09-21T15:36:47;12.60;72.80
19389;DHT22;9830;41.876;23.474;2022-09-21T15:39:29;12.70;73.90
19389;DHT22;9830;41.876;23.474;2022-09-21T15:42:17;12.50;76.90
19389;DHT22;9830;41.876;23.474;2022-09-21T15:44:45;12.40;80.50
19389;DHT22;9830;41.876;23.474;2022-09-21T15:47:14;12.40;80.50
19389;DHT22;9830;41.876;23.474;2022-09-21T15:49:41;12.30;82.40
19389;DHT22;9830;41.876;23.474;2022-09-21T15:54:54;12.00;86.30
19389;DHT22;9830;41.876;23.474;2022-09-21T15:57:34;11.90;81.80
19389;DHT22;9830;41.876;23.474;2022-09-21T16:00:29;11.80;87.10
19389;DHT22;9830;41.876;23.474;2022-09-21T16:03:00;11.70;83.30
19389;DHT22;9830;41.876;23.474;2022-09-21T16:10:47;11.50;87.70
19389;DHT22;9830;41.876;23.474;2022-09-21T16:13:22;11.40;87.70
19389;DHT22;9830;41.876;23.474;2022-09-21T16:16:11;11.20;88.10
19389;DHT22;9830;41.876;23.474;2022-09-21T16:18:44;11.20;91.30
19389;DHT22;9830;41.876;23.474;2022-09-21T16:21:24;11.10;90.70
19389;DHT22;9830;41.876;23.474;2022-09-21T16:23:56;11.00;90.90
19389;DHT22;9830;41.876;23.474;2022-09-21T16:26:33;10.90;90.50
19389;DHT22;9830;41.876;23.474;2022-09-21T16:29:15;10.80;90.40
19389;DHT22;9830;41.876;23.474;2022-09-21T16:31:41;10.80;91.40
19389;DHT22;9830;41.876;23.474;2022-09-21T16:34:20;10.60;93.40
19389;DHT22;9830;41.876;23.474;2022-09-21T16:36:53;10.50;93.80
19389;DHT22;9830;41.876;23.474;2022-09-21T16:39:19;10.40;95.10
19389;DHT22;9830;41.876;23.474;2022-09-21T16:41:54;10.30;96.90
19389;DHT22;9830;41.876;23.474;2022-09-21T16:44:23;10.20;97.50
19389;DHT22;9830;41.876;23.474;2022-09-21T16:46:58;10.10;97.10
19389;DHT22;9830;41.876;23.474;2022-09-21T16:49:27;10.00;98.60
19389;DHT22;9830;41.876;23.474;2022-09-21T16:51:55;9.90;99.30
19389;DHT22;9830;41.876;23.474;2022-09-21T16:54:22;9.80;99.90
19389;DHT22;9830;41.876;23.474;2022-09-21T16:56:52;9.50;99.90
19389;DHT22;9830;41.876;23.474;2022-09-21T16:59:19;9.40;99.90
19389;DHT22;9830;41.876;23.474;2022-09-21T17:01:46;9.40;99.90
19389;DHT22;9830;41.876;23.474;2022-09-21T17:04:16;9.30;99.90
19389;DHT22;9830;41.876;23.474;2022-09-21T17:06:42;9.20;99.90
19389;DHT22;9830;41.876;23.474;2022-09-21T17:09:22;9.10;99.90
19389;DHT22;9830;41.876;23.474;2022-09-21T17:11:49;9.00;99.90
19389;DHT22;9830;41.876;23.474;2022-09-21T17:14:16;9.00;99.90
19389;DHT22;9830;41.876;23.474;2022-09-21T17:16:49;8.90;99.90
19389;DHT22;9830;41.876;23.474;2022-09-21T17:19:16;8.70;99.90
19389;DHT22;9830;41.876;23.474;2022-09-21T17:21:42;8.50;99.90
19389;DHT22;9830;41.876;23.474;2022-09-21T17:24:10;8.40;99.90
19389;DHT22;9830;41.876;23.474;2022-09-21T17:26:36;8.40;99.90
19389;DHT22;9830;41.876;23.474;2022-09-21T17:29:04;8.30;99.90
19389;DHT22;9830;41.876;23.474;2022-09-21T17:31:38;8.20;99.90
19389;DHT22;9830;41.876;23.474;2022-09-21T17:34:09;8.10;99.90
19389;DHT22;9830;41.876;23.474;2022-09-21T17:36:36;8.10;99.90
19389;DHT22;9830;41.876;23.474;2022-09-21T17:39:02;8.00;99.90
19389;DHT22;9830;41.876;23.474;2022-09-21T17:41:50;8.00;99.90
19389;DHT22;9830;41.876;23.474;2022-09-21T17:44:38;8.00;99.90
19389;DHT22;9830;41.876;23.474;2022-09-21T17:47:21;7.90;99.90
19389;DHT22;9830;41.876;23.474;2022-09-21T17:49:49;7.80;99.90
19389;DHT22;9830;41.876;23.474;2022-09-21T17:52:17;7.80;99.90
19389;DHT22;9830;41.876;23.474;2022-09-21T17:55:03;7.70;99.90
19389;DHT22;9830;41.876;23.474;2022-09-21T18:00:40;7.50;99.90
19389;DHT22;9830;41.876;23.474;2022-09-21T18:03:21;7.40;99.90
19389;DHT22;9830;41.876;23.474;2022-09-21T18:05:48;7.20;99.90
19389;DHT22;9830;41.876;23.474;2022-09-21T18:08:15;7.20;99.90
19389;DHT22;9830;41.876;23.474;2022-09-21T18:10:46;7.20;99.90
19389;DHT22;9830;41.876;23.474;2022-09-21T18:13:38;7.30;99.90
19389;DHT22;9830;41.876;23.474;2022-09-21T18:18:54;7.30;99.90
19389;DHT22;9830;41.876;23.474;2022-09-21T18:21:23;7.30;99.90
19389;DHT22;9830;41.876;23.474;2022-09-21T18:26:32;7.30;99.90
19389;DHT22;9830;41.876;23.474;2022-09-21T18:28:59;7.20;99.90
19389;DHT22;9830;41.876;23.474;2022-09-21T18:43:16;6.70;99.90
19389;DHT22;9830;41.876;23.474;2022-09-21T18:45:40;6.50;99.90
19389;DHT22;9830;41.876;23.474;2022-09-21T18:48:31;6.40;99.90
19389;DHT22;9830;41.876;23.474;2022-09-21T18:53:50;6.30;99.90
19389;DHT22;9830;41.876;23.474;2022-09-21T18:56:26;6.20;99.90
19389;DHT22;9830;41.876;23.474;2022-09-21T18:58:52;6.30;99.90
19389;DHT22;9830;41.876;23.474;2022-09-21T19:01:18;6.30;99.90
19389;DHT22;9830;41.876;23.474;2022-09-21T19:03:47;6.30;99.90
19389;DHT22;9830;41.876;23.474;2022-09-21T19:06:40;6.20;99.90
19389;DHT22;9830;41.876;23.474;2022-09-21T19:09:41;6.10;99.90
19389;DHT22;9830;41.876;23.474;2022-09-21T19:13:20;6.10;99.90
19389;DHT22;9830;41.876;23.474;2022-09-21T19:18:18;6.40;99.90
19389;DHT22;9830;41.876;23.474;2022-09-21T19:26:40;6.40;99.90
19389;DHT22;9830;41.876;23.474;2022-09-21T19:29:26;6.30;99.90
19389;DHT22;9830;41.876;23.474;2022-09-21T19:31:56;6.30;99.90
19389;DHT22;9830;41.876;23.474;2022-09-21T19:34:22;6.40;99.90
19389;DHT22;9830;41.876;23.474;2022-09-21T19:36:48;6.40;99.90
19389;DHT22;9830;41.876;23.474;2022-09-21T19:39:15;6.40;99.90
19389;DHT22;9830;41.876;23.474;2022-09-21T19:47:34;6.20;99.90
19389;DHT22;9830;41.876;23.474;2022-09-21T19:52:38;6.20;99.90
19389;DHT22;9830;41.876;23.474;2022-09-21T19:55:15;6.10;99.90
19389;DHT22;9830;41.876;23.474;2022-09-21T19:58:00;6.10;99.90
19389;DHT22;9830;41.876;23.474;2022-09-21T20:00:49;6.10;99.90
19389;DHT22;9830;41.876;23.474;2022-09-21T20:03:25;6.00;99.90
19389;DHT22;9830;41.876;23.474;2022-09-21T20:06:05;6.00;99.90
19389;DHT22;9830;41.876;23.474;2022-09-21T20:11:05;5.90;99.90
19389;DHT22;9830;41.876;23.474;2022-09-21T20:14:01;5.90;99.90
19389;DHT22;9830;41.876;23.474;2022-09-21T20:22:09;5.60;99.90
19389;DHT22;9830;41.876;23.474;2022-09-21T20:30:04;5.40;99.90
19389;DHT22;9830;41.876;23.474;2022-09-21T20:32:31;5.30;99.90
19389;DHT22;9830;41.876;23.474;2022-09-21T20:34:57;5.20;99.90
19389;DHT22;9830;41.876;23.474;2022-09-21T20:37:23;5.20;99.90
19389;DHT22;9830;41.876;23.474;2022-09-21T20:39:50;5.10;99.90
19389;DHT22;9830;41.876;23.474;2022-09-21T20:42:22;5.10;99.90
19389;DHT22;9830;41.876;23.474;2022-09-21T20:44:51;5.10;99.90
19389;DHT22;9830;41.876;23.474;2022-09-21T20:47:18;5.00;99.90
19389;DHT22;9830;41.876;23.474;2022-09-21T20:49:48;5.00;99.90
19389;DHT22;9830;41.876;23.474;2022-09-21T20:52:14;4.90;99.90
19389;DHT22;9830;41.876;23.474;2022-09-21T20:54:42;4.80;99.90